sensor_id;sensor_type;location;lat;lon;timestamp;temperature;humidity
19031;DHT22;9648;51.130;13.978;2023-08-06T00:00:37;15.10;99.90
19031;DHT22;9648;51.130;13.978;2023-08-06T00:03:04;15.20;99.90
19031;DHT22;9648;51.130;13.978;2023-08-06T00:05:31;15.10;99.90
19031;DHT22;9648;51.130;13.978;2023-08-06T00:07:59;15.20;99.90
19031;DHT22;9648;51.130;13.978;2023-08-06T00:10:26;15.10;99.90
19031;DHT22;9648;51.130;13.978;2023-08-06T00:12:53;15.20;99.90
19031;DHT22;9648;51.130;13.978;2023-08-06T00:15:20;15.20;99.90
19031;DHT22;9648;51.130;13.978;2023-08-06T00:17:47;15.20;99.90
19031;DHT22;9648;51.130;13.978;2023-08-06T00:20:13;15.20;99.90
19031;DHT22;9648;51.130;13.978;2023-08-06T00:22:40;15.20;99.90
19031;DHT22;9648;51.130;13.978;2023-08-06T00:25:09;15.10;99.90
19031;DHT22;9648;51.130;13.978;2023-08-06T00:27:35;15.10;99.90
19031;DHT22;9648;51.130;13.978;2023-08-06T00:30:03;15.10;99.90
19031;DHT22;9648;51.130;13.978;2023-08-06T00:32:30;15.10;99.90
19031;DHT22;9648;51.130;13.978;2023-08-06T00:34:57;15.10;99.90
19031;DHT22;9648;51.130;13.978;2023-08-06T00:37:23;15.10;99.90
19031;DHT22;9648;51.130;13.978;2023-08-06T00:39:50;15.10;99.90
19031;DHT22;9648;51.130;13.978;2023-08-06T00:42:18;15.10;99.90
19031;DHT22;9648;51.130;13.978;2023-08-06T00:44:46;15.00;99.90
19031;DHT22;9648;51.130;13.978;2023-08-06T00:47:13;15.00;99.90
19031;DHT22;9648;51.130;13.978;2023-08-06T00:49:40;15.00;99.90
19031;DHT22;9648;51.130;13.978;2023-08-06T00:52:08;15.00;99.90
19031;DHT22;9648;51.130;13.978;2023-08-06T00:54:35;15.10;99.90
19031;DHT22;9648;51.130;13.978;2023-08-06T00:57:04;15.10;99.90
19031;DHT22;9648;51.130;13.978;2023-08-06T00:59:32;15.10;99.90
19031;DHT22;9648;51.130;13.978;2023-08-06T01:01:59;15.10;99.90
19031;DHT22;9648;51.130;13.978;2023-08-06T01:04:26;15.10;99.90
19031;DHT22;9648;51.130;13.978;2023-08-06T01:07:02;15.00;99.90
19031;DHT22;9648;51.130;13.978;2023-08-06T01:09:37;15.00;99.90
19031;DHT22;9648;51.130;13.978;2023-08-06T01:12:20;15.00;99.90
19031;DHT22;9648;51.130;13.978;2023-08-06T01:14:53;15.00;99.90
19031;DHT22;9648;51.130;13.978;2023-08-06T01:17:24;15.00;99.90
19031;DHT22;9648;51.130;13.978;2023-08-06T01:19:52;15.00;99.90
19031;DHT22;9648;51.130;13.978;2023-08-06T01:22:20;15.00;99.90
19031;DHT22;9648;51.130;13.978;2023-08-06T01:24:50;15.00;99.90
19031;DHT22;9648;51.130;13.978;2023-08-06T01:27:23;15.00;99.90
19031;DHT22;9648;51.130;13.978;2023-08-06T01:29:59;15.00;99.90
19031;DHT22;9648;51.130;13.978;2023-08-06T01:32:29;15.00;99.90
19031;DHT22;9648;51.130;13.978;2023-08-06T01:34:59;15.00;99.90
19031;DHT22;9648;51.130;13.978;2023-08-06T01:37:28;15.00;99.90
19031;DHT22;9648;51.130;13.978;2023-08-06T01:39:55;15.00;99.90
19031;DHT22;9648;51.130;13.978;2023-08-06T01:42:21;15.00;99.90
19031;DHT22;9648;51.130;13.978;2023-08-06T01:44:48;15.00;99.90
19031;DHT22;9648;51.130;13.978;2023-08-06T01:47:15;14.90;99.90
19031;DHT22;9648;51.130;13.978;2023-08-06T01:49:42;14.90;99.90
19031;DHT22;9648;51.130;13.978;2023-08-06T01:52:08;14.90;99.90
19031;DHT22;9648;51.130;13.978;2023-08-06T01:54:36;14.90;99.90
19031;DHT22;9648;51.130;13.978;2023-08-06T01:57:04;14.90;99.90
19031;DHT22;9648;51.130;13.978;2023-08-06T01:59:31;14.90;99.90
19031;DHT22;9648;51.130;13.978;2023-08-06T02:01:58;14.90;99.90
19031;DHT22;9648;51.130;13.978;2023-08-06T02:04:24;14.90;99.90
19031;DHT22;9648;51.130;13.978;2023-08-06T02:06:51;14.90;99.90
19031;DHT22;9648;51.130;13.978;2023-08-06T02:09:18;14.90;99.90
19031;DHT22;9648;51.130;13.978;2023-08-06T02:11:46;14.90;99.90
19031;DHT22;9648;51.130;13.978;2023-08-06T02:14:13;14.90;99.90
19031;DHT22;9648;51.130;13.978;2023-08-06T02:16:40;14.90;99.90
19031;DHT22;9648;51.130;13.978;2023-08-06T02:19:06;14.90;99.90
19031;DHT22;9648;51.130;13.978;2023-08-06T02:21:33;14.80;99.90
19031;DHT22;9648;51.130;13.978;2023-08-06T02:24:00;14.90;99.90
19031;DHT22;9648;51.130;13.978;2023-08-06T02:26:27;14.90;99.90
19031;DHT22;9648;51.130;13.978;2023-08-06T02:28:55;14.90;99.90
19031;DHT22;9648;51.130;13.978;2023-08-06T02:31:22;14.90;99.90
19031;DHT22;9648;51.130;13.978;2023-08-06T02:33:48;14.90;99.90
19031;DHT22;9648;51.130;13.978;2023-08-06T02:36:15;14.90;99.90
19031;DHT22;9648;51.130;13.978;2023-08-06T02:38:42;14.80;99.90
19031;DHT22;9648;51.130;13.978;2023-08-06T02:41:09;14.80;99.90
19031;DHT22;9648;51.130;13.978;2023-08-06T02:43:35;14.90;99.90
19031;DHT22;9648;51.130;13.978;2023-08-06T02:46:04;14.80;99.90
19031;DHT22;9648;51.130;13.978;2023-08-06T02:48:30;14.80;99.90
19031;DHT22;9648;51.130;13.978;2023-08-06T02:50:57;14.80;99.90
19031;DHT22;9648;51.130;13.978;2023-08-06T02:53:25;14.80;99.90
19031;DHT22;9648;51.130;13.978;2023-08-06T02:55:52;14.80;99.90
19031;DHT22;9648;51.130;13.978;2023-08-06T02:58:19;14.80;99.90
19031;DHT22;9648;51.130;13.978;2023-08-06T03:00:59;14.80;99.90
19031;DHT22;9648;51.130;13.978;2023-08-06T03:03:27;14.80;99.90
19031;DHT22;9648;51.130;13.978;2023-08-06T03:05:54;14.80;99.90
19031;DHT22;9648;51.130;13.978;2023-08-06T03:08:20;14.80;99.90
19031;DHT22;9648;51.130;13.978;2023-08-06T03:10:48;14.80;99.90
19031;DHT22;9648;51.130;13.978;2023-08-06T03:13:15;14.80;99.90
19031;DHT22;9648;51.130;13.978;2023-08-06T03:15:41;14.80;99.90
19031;DHT22;9648;51.130;13.978;2023-08-06T03:18:08;14.80;99.90
19031;DHT22;9648;51.130;13.978;2023-08-06T03:20:36;14.80;99.90
19031;DHT22;9648;51.130;13.978;2023-08-06T03:23:03;14.80;99.90
19031;DHT22;9648;51.130;13.978;2023-08-06T03:25:30;14.80;99.90
19031;DHT22;9648;51.130;13.978;2023-08-06T03:27:57;14.70;99.90
19031;DHT22;9648;51.130;13.978;2023-08-06T03:30:23;14.70;99.90
19031;DHT22;9648;51.130;13.978;2023-08-06T03:32:50;14.70;99.90
19031;DHT22;9648;51.130;13.978;2023-08-06T03:35:17;14.70;99.90
19031;DHT22;9648;51.130;13.978;2023-08-06T03:37:45;14.70;99.90
19031;DHT22;9648;51.130;13.978;2023-08-06T03:40:12;14.70;99.90
19031;DHT22;9648;51.130;13.978;2023-08-06T03:42:38;14.70;99.90
19031;DHT22;9648;51.130;13.978;2023-08-06T03:45:06;14.70;99.90
19031;DHT22;9648;51.130;13.978;2023-08-06T03:47:34;14.60;99.90
19031;DHT22;9648;51.130;13.978;2023-08-06T03:50:00;14.60;99.90
19031;DHT22;9648;51.130;13.978;2023-08-06T03:52:27;14.60;99.90
19031;DHT22;9648;51.130;13.978;2023-08-06T03:54:55;14.60;99.90
19031;DHT22;9648;51.130;13.978;2023-08-06T03:57:22;14.70;99.90
19031;DHT22;9648;51.130;13.978;2023-08-06T03:59:49;14.70;99.90
19031;DHT22;9648;51.130;13.978;2023-08-06T04:02:15;14.70;99.90
19031;DHT22;9648;51.130;13.978;2023-08-06T04:04:42;14.70;99.90
19031;DHT22;9648;51.130;13.978;2023-08-06T04:07:09;14.70;99.90
19031;DHT22;9648;51.130;13.978;2023-08-06T04:09:52;14.70;99.90
19031;DHT22;9648;51.130;13.978;2023-08-06T04:12:20;14.70;99.90
19031;DHT22;9648;51.130;13.978;2023-08-06T04:14:47;14.70;99.90
19031;DHT22;9648;51.130;13.978;2023-08-06T04:17:14;14.70;99.90
19031;DHT22;9648;51.130;13.978;2023-08-06T04:19:40;14.70;99.90
19031;DHT22;9648;51.130;13.978;2023-08-06T04:22:07;14.70;99.90
19031;DHT22;9648;51.130;13.978;2023-08-06T04:24:34;14.70;99.90
19031;DHT22;9648;51.130;13.978;2023-08-06T04:27:01;14.70;99.90
19031;DHT22;9648;51.130;13.978;2023-08-06T04:29:29;14.70;99.90
19031;DHT22;9648;51.130;13.978;2023-08-06T04:31:55;14.70;99.90
19031;DHT22;9648;51.130;13.978;2023-08-06T04:34:22;14.70;99.90
19031;DHT22;9648;51.130;13.978;2023-08-06T04:36:49;14.70;99.90
19031;DHT22;9648;51.130;13.978;2023-08-06T04:39:16;14.70;99.90
19031;DHT22;9648;51.130;13.978;2023-08-06T04:41:43;14.70;99.90
19031;DHT22;9648;51.130;13.978;2023-08-06T04:44:09;14.70;99.90
19031;DHT22;9648;51.130;13.978;2023-08-06T04:46:38;14.70;99.90
19031;DHT22;9648;51.130;13.978;2023-08-06T04:49:05;14.70;99.90
19031;DHT22;9648;51.130;13.978;2023-08-06T04:51:31;14.70;99.90
19031;DHT22;9648;51.130;13.978;2023-08-06T04:53:58;14.80;99.90
19031;DHT22;9648;51.130;13.978;2023-08-06T04:56:25;14.80;99.90
19031;DHT22;9648;51.130;13.978;2023-08-06T04:58:52;14.80;99.90
19031;DHT22;9648;51.130;13.978;2023-08-06T05:01:19;14.80;99.90
19031;DHT22;9648;51.130;13.978;2023-08-06T05:03:48;14.80;99.90
19031;DHT22;9648;51.130;13.978;2023-08-06T05:06:15;14.80;99.90
19031;DHT22;9648;51.130;13.978;2023-08-06T05:08:42;14.80;99.90
19031;DHT22;9648;51.130;13.978;2023-08-06T05:11:09;14.90;99.90
19031;DHT22;9648;51.130;13.978;2023-08-06T05:13:36;14.90;99.90
19031;DHT22;9648;51.130;13.978;2023-08-06T05:16:03;14.90;99.90
19031;DHT22;9648;51.130;13.978;2023-08-06T05:18:30;14.90;99.90
19031;DHT22;9648;51.130;13.978;2023-08-06T05:20:58;14.90;99.90
19031;DHT22;9648;51.130;13.978;2023-08-06T05:23:25;14.90;99.90
19031;DHT22;9648;51.130;13.978;2023-08-06T05:25:51;15.00;99.90
19031;DHT22;9648;51.130;13.978;2023-08-06T05:28:18;15.00;99.90
19031;DHT22;9648;51.130;13.978;2023-08-06T05:30:45;15.00;99.90
19031;DHT22;9648;51.130;13.978;2023-08-06T05:33:12;15.00;99.90
19031;DHT22;9648;51.130;13.978;2023-08-06T05:35:40;15.00;99.90
19031;DHT22;9648;51.130;13.978;2023-08-06T05:38:08;15.10;99.90
19031;DHT22;9648;51.130;13.978;2023-08-06T05:40:35;15.10;99.90
19031;DHT22;9648;51.130;13.978;2023-08-06T05:43:01;15.10;99.90
19031;DHT22;9648;51.130;13.978;2023-08-06T05:45:28;15.10;99.90
19031;DHT22;9648;51.130;13.978;2023-08-06T05:47:55;15.20;99.90
19031;DHT22;9648;51.130;13.978;2023-08-06T05:50:23;15.20;99.90
19031;DHT22;9648;51.130;13.978;2023-08-06T05:52:50;15.20;99.90
19031;DHT22;9648;51.130;13.978;2023-08-06T05:55:20;15.20;99.90
19031;DHT22;9648;51.130;13.978;2023-08-06T05:57:46;15.20;99.90
19031;DHT22;9648;51.130;13.978;2023-08-06T06:00:14;15.30;99.90
19031;DHT22;9648;51.130;13.978;2023-08-06T06:02:40;15.30;99.90
19031;DHT22;9648;51.130;13.978;2023-08-06T06:05:08;15.30;99.90
19031;DHT22;9648;51.130;13.978;2023-08-06T06:07:35;15.30;99.90
19031;DHT22;9648;51.130;13.978;2023-08-06T06:10:01;15.40;99.90
19031;DHT22;9648;51.130;13.978;2023-08-06T06:12:30;15.40;99.90
19031;DHT22;9648;51.130;13.978;2023-08-06T06:14:56;15.50;99.90
19031;DHT22;9648;51.130;13.978;2023-08-06T06:17:23;15.50;99.90
19031;DHT22;9648;51.130;13.978;2023-08-06T06:19:50;15.50;99.90
19031;DHT22;9648;51.130;13.978;2023-08-06T06:22:17;15.50;99.90
19031;DHT22;9648;51.130;13.978;2023-08-06T06:24:44;15.50;99.90
19031;DHT22;9648;51.130;13.978;2023-08-06T06:27:11;15.50;99.90
19031;DHT22;9648;51.130;13.978;2023-08-06T06:29:39;15.50;99.90
19031;DHT22;9648;51.130;13.978;2023-08-06T06:32:06;15.50;99.90
19031;DHT22;9648;51.130;13.978;2023-08-06T06:34:33;15.50;99.90
19031;DHT22;9648;51.130;13.978;2023-08-06T06:37:00;15.60;99.90
19031;DHT22;9648;51.130;13.978;2023-08-06T06:39:26;15.60;99.90
19031;DHT22;9648;51.130;13.978;2023-08-06T06:41:53;15.70;99.90
19031;DHT22;9648;51.130;13.978;2023-08-06T06:44:20;15.70;99.90
19031;DHT22;9648;51.130;13.978;2023-08-06T06:46:48;15.80;99.90
19031;DHT22;9648;51.130;13.978;2023-08-06T06:49:15;15.80;99.90
19031;DHT22;9648;51.130;13.978;2023-08-06T06:51:42;15.90;99.90
19031;DHT22;9648;51.130;13.978;2023-08-06T06:54:08;15.90;99.90
19031;DHT22;9648;51.130;13.978;2023-08-06T06:56:35;15.90;99.90
19031;DHT22;9648;51.130;13.978;2023-08-06T06:59:02;15.90;99.90
19031;DHT22;9648;51.130;13.978;2023-08-06T07:01:29;16.00;99.90
19031;DHT22;9648;51.130;13.978;2023-08-06T07:03:57;16.00;99.90
19031;DHT22;9648;51.130;13.978;2023-08-06T07:06:24;16.10;99.90
19031;DHT22;9648;51.130;13.978;2023-08-06T07:08:50;16.10;99.90
19031;DHT22;9648;51.130;13.978;2023-08-06T07:11:17;16.10;99.90
19031;DHT22;9648;51.130;13.978;2023-08-06T07:13:44;16.10;99.90
19031;DHT22;9648;51.130;13.978;2023-08-06T07:16:11;16.10;99.90
19031;DHT22;9648;51.130;13.978;2023-08-06T07:18:37;16.10;99.90
19031;DHT22;9648;51.130;13.978;2023-08-06T07:21:06;16.10;99.90
19031;DHT22;9648;51.130;13.978;2023-08-06T07:23:32;16.10;99.90
19031;DHT22;9648;51.130;13.978;2023-08-06T07:25:59;16.20;99.90
19031;DHT22;9648;51.130;13.978;2023-08-06T07:28:26;16.20;99.90
19031;DHT22;9648;51.130;13.978;2023-08-06T07:30:53;16.20;99.90
19031;DHT22;9648;51.130;13.978;2023-08-06T07:33:20;16.20;99.90
19031;DHT22;9648;51.130;13.978;2023-08-06T07:35:46;16.20;99.90
19031;DHT22;9648;51.130;13.978;2023-08-06T07:38:14;16.20;99.90
19031;DHT22;9648;51.130;13.978;2023-08-06T07:40:42;16.20;99.90
19031;DHT22;9648;51.130;13.978;2023-08-06T07:43:09;16.20;99.90
19031;DHT22;9648;51.130;13.978;2023-08-06T07:45:35;16.30;99.90
19031;DHT22;9648;51.130;13.978;2023-08-06T07:48:03;16.20;99.90
19031;DHT22;9648;51.130;13.978;2023-08-06T07:50:30;16.20;99.90
19031;DHT22;9648;51.130;13.978;2023-08-06T07:52:57;16.30;99.90
19031;DHT22;9648;51.130;13.978;2023-08-06T07:55:25;16.30;99.90
19031;DHT22;9648;51.130;13.978;2023-08-06T07:57:53;16.40;99.90
19031;DHT22;9648;51.130;13.978;2023-08-06T08:00:19;16.40;99.90
19031;DHT22;9648;51.130;13.978;2023-08-06T08:02:46;16.40;99.90
19031;DHT22;9648;51.130;13.978;2023-08-06T08:05:13;16.50;99.90
19031;DHT22;9648;51.130;13.978;2023-08-06T08:07:40;16.50;99.90
19031;DHT22;9648;51.130;13.978;2023-08-06T08:10:07;16.40;99.90
19031;DHT22;9648;51.130;13.978;2023-08-06T08:12:35;16.50;99.90
19031;DHT22;9648;51.130;13.978;2023-08-06T08:15:02;16.50;99.90
19031;DHT22;9648;51.130;13.978;2023-08-06T08:17:29;16.50;99.90
19031;DHT22;9648;51.130;13.978;2023-08-06T08:19:56;16.70;99.90
19031;DHT22;9648;51.130;13.978;2023-08-06T08:22:23;16.70;99.90
19031;DHT22;9648;51.130;13.978;2023-08-06T08:24:49;16.80;99.90
19031;DHT22;9648;51.130;13.978;2023-08-06T08:27:16;16.80;99.90
19031;DHT22;9648;51.130;13.978;2023-08-06T08:29:44;16.90;99.90
19031;DHT22;9648;51.130;13.978;2023-08-06T08:32:11;17.00;99.90
19031;DHT22;9648;51.130;13.978;2023-08-06T08:34:38;17.10;99.90
19031;DHT22;9648;51.130;13.978;2023-08-06T08:37:05;17.10;99.90
19031;DHT22;9648;51.130;13.978;2023-08-06T08:39:32;17.10;99.90
19031;DHT22;9648;51.130;13.978;2023-08-06T08:41:59;17.10;99.90
19031;DHT22;9648;51.130;13.978;2023-08-06T08:44:27;17.10;99.90
19031;DHT22;9648;51.130;13.978;2023-08-06T08:46:57;17.00;99.90
19031;DHT22;9648;51.130;13.978;2023-08-06T08:49:24;17.00;99.90
19031;DHT22;9648;51.130;13.978;2023-08-06T08:51:53;17.00;99.90
19031;DHT22;9648;51.130;13.978;2023-08-06T08:54:23;17.00;99.90
19031;DHT22;9648;51.130;13.978;2023-08-06T08:56:50;17.00;99.90
19031;DHT22;9648;51.130;13.978;2023-08-06T08:59:17;17.10;99.90
19031;DHT22;9648;51.130;13.978;2023-08-06T09:01:46;17.00;99.90
19031;DHT22;9648;51.130;13.978;2023-08-06T09:04:17;17.00;99.90
19031;DHT22;9648;51.130;13.978;2023-08-06T09:06:46;17.00;99.90
19031;DHT22;9648;51.130;13.978;2023-08-06T09:09:16;17.00;99.90
19031;DHT22;9648;51.130;13.978;2023-08-06T09:11:44;17.00;99.90
19031;DHT22;9648;51.130;13.978;2023-08-06T09:14:11;17.00;99.90
19031;DHT22;9648;51.130;13.978;2023-08-06T09:16:38;17.00;99.90
19031;DHT22;9648;51.130;13.978;2023-08-06T09:19:08;17.10;99.90
19031;DHT22;9648;51.130;13.978;2023-08-06T09:21:37;17.20;99.90
19031;DHT22;9648;51.130;13.978;2023-08-06T09:24:08;17.20;99.90
19031;DHT22;9648;51.130;13.978;2023-08-06T09:26:36;17.30;99.90
19031;DHT22;9648;51.130;13.978;2023-08-06T09:29:05;17.30;99.90
19031;DHT22;9648;51.130;13.978;2023-08-06T09:31:40;17.40;99.90
19031;DHT22;9648;51.130;13.978;2023-08-06T09:34:11;17.20;99.90
19031;DHT22;9648;51.130;13.978;2023-08-06T09:36:41;17.20;99.90
19031;DHT22;9648;51.130;13.978;2023-08-06T09:39:13;17.20;99.90
19031;DHT22;9648;51.130;13.978;2023-08-06T09:41:40;17.20;99.90
19031;DHT22;9648;51.130;13.978;2023-08-06T09:44:15;17.00;99.90
19031;DHT22;9648;51.130;13.978;2023-08-06T09:46:42;16.90;99.90
19031;DHT22;9648;51.130;13.978;2023-08-06T09:49:09;16.90;99.90
19031;DHT22;9648;51.130;13.978;2023-08-06T09:51:37;16.80;99.90
19031;DHT22;9648;51.130;13.978;2023-08-06T09:54:06;16.70;99.90
19031;DHT22;9648;51.130;13.978;2023-08-06T09:56:34;16.60;99.90
19031;DHT22;9648;51.130;13.978;2023-08-06T09:59:04;16.60;99.90
19031;DHT22;9648;51.130;13.978;2023-08-06T10:01:33;16.70;99.90
19031;DHT22;9648;51.130;13.978;2023-08-06T10:04:01;16.70;99.90
19031;DHT22;9648;51.130;13.978;2023-08-06T10:06:29;16.70;99.90
19031;DHT22;9648;51.130;13.978;2023-08-06T10:08:56;16.80;99.90
19031;DHT22;9648;51.130;13.978;2023-08-06T10:11:25;16.80;99.90
19031;DHT22;9648;51.130;13.978;2023-08-06T10:13:57;16.80;99.90
19031;DHT22;9648;51.130;13.978;2023-08-06T10:16:25;16.80;99.90
19031;DHT22;9648;51.130;13.978;2023-08-06T10:18:54;16.90;99.90
19031;DHT22;9648;51.130;13.978;2023-08-06T10:21:23;16.80;99.90
19031;DHT22;9648;51.130;13.978;2023-08-06T10:23:54;16.80;99.90
19031;DHT22;9648;51.130;13.978;2023-08-06T10:26:26;16.80;99.90
19031;DHT22;9648;51.130;13.978;2023-08-06T10:28:53;16.90;99.90
19031;DHT22;9648;51.130;13.978;2023-08-06T10:31:20;17.00;99.90
19031;DHT22;9648;51.130;13.978;2023-08-06T10:34:07;17.10;99.90
19031;DHT22;9648;51.130;13.978;2023-08-06T10:36:34;17.10;99.90
19031;DHT22;9648;51.130;13.978;2023-08-06T10:39:02;17.10;99.90
19031;DHT22;9648;51.130;13.978;2023-08-06T10:41:31;17.10;99.90
19031;DHT22;9648;51.130;13.978;2023-08-06T10:44:05;17.10;99.90
19031;DHT22;9648;51.130;13.978;2023-08-06T10:46:32;17.00;99.90
19031;DHT22;9648;51.130;13.978;2023-08-06T10:48:59;17.00;99.90
19031;DHT22;9648;51.130;13.978;2023-08-06T10:51:26;17.10;99.90
19031;DHT22;9648;51.130;13.978;2023-08-06T10:53:54;17.20;99.90
19031;DHT22;9648;51.130;13.978;2023-08-06T10:56:23;17.20;99.90
19031;DHT22;9648;51.130;13.978;2023-08-06T10:58:54;17.40;99.90
19031;DHT22;9648;51.130;13.978;2023-08-06T11:01:21;17.50;99.90
19031;DHT22;9648;51.130;13.978;2023-08-06T11:03:49;17.60;99.90
19031;DHT22;9648;51.130;13.978;2023-08-06T11:06:19;17.70;99.90
19031;DHT22;9648;51.130;13.978;2023-08-06T11:08:48;17.80;99.90
19031;DHT22;9648;51.130;13.978;2023-08-06T11:11:15;17.70;99.90
19031;DHT22;9648;51.130;13.978;2023-08-06T11:13:44;17.70;99.90
19031;DHT22;9648;51.130;13.978;2023-08-06T11:16:13;17.60;99.90
19031;DHT22;9648;51.130;13.978;2023-08-06T11:18:40;17.60;99.90
19031;DHT22;9648;51.130;13.978;2023-08-06T11:21:07;17.60;99.90
19031;DHT22;9648;51.130;13.978;2023-08-06T11:23:35;17.60;99.90
19031;DHT22;9648;51.130;13.978;2023-08-06T11:26:02;17.60;99.90
19031;DHT22;9648;51.130;13.978;2023-08-06T11:28:29;17.70;99.90
19031;DHT22;9648;51.130;13.978;2023-08-06T11:30:56;17.70;99.90
19031;DHT22;9648;51.130;13.978;2023-08-06T11:33:28;17.80;99.90
19031;DHT22;9648;51.130;13.978;2023-08-06T11:35:55;17.80;99.90
19031;DHT22;9648;51.130;13.978;2023-08-06T11:38:24;17.90;99.90
19031;DHT22;9648;51.130;13.978;2023-08-06T11:40:52;17.90;99.90
19031;DHT22;9648;51.130;13.978;2023-08-06T11:43:19;17.70;99.90
19031;DHT22;9648;51.130;13.978;2023-08-06T11:45:48;17.60;99.90
19031;DHT22;9648;51.130;13.978;2023-08-06T11:48:16;17.50;99.90
19031;DHT22;9648;51.130;13.978;2023-08-06T11:50:45;17.40;99.90
19031;DHT22;9648;51.130;13.978;2023-08-06T11:53:13;17.40;99.90
19031;DHT22;9648;51.130;13.978;2023-08-06T11:55:40;17.30;99.90
19031;DHT22;9648;51.130;13.978;2023-08-06T11:58:09;17.30;99.90
19031;DHT22;9648;51.130;13.978;2023-08-06T12:00:37;17.20;99.90
19031;DHT22;9648;51.130;13.978;2023-08-06T12:03:04;17.20;99.90
19031;DHT22;9648;51.130;13.978;2023-08-06T12:05:32;17.20;99.90
19031;DHT22;9648;51.130;13.978;2023-08-06T12:08:02;17.10;99.90
19031;DHT22;9648;51.130;13.978;2023-08-06T12:10:30;17.10;99.90
19031;DHT22;9648;51.130;13.978;2023-08-06T12:12:57;17.00;99.90
19031;DHT22;9648;51.130;13.978;2023-08-06T12:15:24;17.00;99.90
19031;DHT22;9648;51.130;13.978;2023-08-06T12:17:50;16.90;99.90
19031;DHT22;9648;51.130;13.978;2023-08-06T12:20:17;16.90;99.90
19031;DHT22;9648;51.130;13.978;2023-08-06T12:22:44;16.90;99.90
19031;DHT22;9648;51.130;13.978;2023-08-06T12:25:13;17.00;99.90
19031;DHT22;9648;51.130;13.978;2023-08-06T12:27:41;17.00;99.90
19031;DHT22;9648;51.130;13.978;2023-08-06T12:30:09;17.20;99.90
19031;DHT22;9648;51.130;13.978;2023-08-06T12:32:36;17.30;99.90
19031;DHT22;9648;51.130;13.978;2023-08-06T12:35:03;17.50;99.90
19031;DHT22;9648;51.130;13.978;2023-08-06T12:37:32;17.60;99.90
19031;DHT22;9648;51.130;13.978;2023-08-06T12:39:59;17.80;99.90
19031;DHT22;9648;51.130;13.978;2023-08-06T12:42:27;17.80;99.90
19031;DHT22;9648;51.130;13.978;2023-08-06T12:44:54;17.90;99.90
19031;DHT22;9648;51.130;13.978;2023-08-06T12:47:21;17.90;99.90
19031;DHT22;9648;51.130;13.978;2023-08-06T12:49:48;18.00;99.90
19031;DHT22;9648;51.130;13.978;2023-08-06T12:52:15;18.10;99.90
19031;DHT22;9648;51.130;13.978;2023-08-06T12:54:42;18.10;99.90
19031;DHT22;9648;51.130;13.978;2023-08-06T12:57:11;18.00;99.90
19031;DHT22;9648;51.130;13.978;2023-08-06T12:59:39;18.10;99.90
19031;DHT22;9648;51.130;13.978;2023-08-06T13:02:06;18.20;99.90
19031;DHT22;9648;51.130;13.978;2023-08-06T13:04:33;18.20;99.90
19031;DHT22;9648;51.130;13.978;2023-08-06T13:07:00;18.30;99.90
19031;DHT22;9648;51.130;13.978;2023-08-06T13:09:27;18.30;99.90
19031;DHT22;9648;51.130;13.978;2023-08-06T13:11:53;18.30;99.90
19031;DHT22;9648;51.130;13.978;2023-08-06T13:14:20;18.40;99.90
19031;DHT22;9648;51.130;13.978;2023-08-06T13:16:48;18.20;99.90
19031;DHT22;9648;51.130;13.978;2023-08-06T13:19:15;18.10;99.90
19031;DHT22;9648;51.130;13.978;2023-08-06T13:22:06;18.10;99.90
19031;DHT22;9648;51.130;13.978;2023-08-06T13:24:35;18.00;99.90
19031;DHT22;9648;51.130;13.978;2023-08-06T13:27:02;18.00;99.90
19031;DHT22;9648;51.130;13.978;2023-08-06T13:29:29;18.00;99.90
19031;DHT22;9648;51.130;13.978;2023-08-06T13:31:57;18.00;99.90
19031;DHT22;9648;51.130;13.978;2023-08-06T13:34:24;18.00;99.90
19031;DHT22;9648;51.130;13.978;2023-08-06T13:36:51;17.90;99.90
19031;DHT22;9648;51.130;13.978;2023-08-06T13:39:17;17.80;99.90
19031;DHT22;9648;51.130;13.978;2023-08-06T13:41:45;17.70;99.90
19031;DHT22;9648;51.130;13.978;2023-08-06T13:44:12;17.60;99.90
19031;DHT22;9648;51.130;13.978;2023-08-06T13:46:41;17.40;99.90
19031;DHT22;9648;51.130;13.978;2023-08-06T13:49:09;17.20;99.90
19031;DHT22;9648;51.130;13.978;2023-08-06T13:51:35;17.20;99.90
19031;DHT22;9648;51.130;13.978;2023-08-06T13:54:03;17.20;99.90
19031;DHT22;9648;51.130;13.978;2023-08-06T13:56:31;17.20;99.90
19031;DHT22;9648;51.130;13.978;2023-08-06T13:58:58;17.30;99.90
19031;DHT22;9648;51.130;13.978;2023-08-06T14:01:25;17.30;99.90
19031;DHT22;9648;51.130;13.978;2023-08-06T14:03:52;17.30;99.90
19031;DHT22;9648;51.130;13.978;2023-08-06T14:06:20;17.30;99.90
19031;DHT22;9648;51.130;13.978;2023-08-06T14:08:47;17.30;99.90
19031;DHT22;9648;51.130;13.978;2023-08-06T14:11:14;17.30;99.90
19031;DHT22;9648;51.130;13.978;2023-08-06T14:13:41;17.50;99.90
19031;DHT22;9648;51.130;13.978;2023-08-06T14:16:08;17.60;99.90
19031;DHT22;9648;51.130;13.978;2023-08-06T14:18:34;17.60;99.90
19031;DHT22;9648;51.130;13.978;2023-08-06T14:21:03;17.60;99.90
19031;DHT22;9648;51.130;13.978;2023-08-06T14:23:32;17.70;99.90
19031;DHT22;9648;51.130;13.978;2023-08-06T14:25:58;17.80;99.90
19031;DHT22;9648;51.130;13.978;2023-08-06T14:28:25;17.90;99.90
19031;DHT22;9648;51.130;13.978;2023-08-06T14:30:52;18.00;99.90
19031;DHT22;9648;51.130;13.978;2023-08-06T14:33:19;18.10;99.90
19031;DHT22;9648;51.130;13.978;2023-08-06T14:35:45;18.20;99.90
19031;DHT22;9648;51.130;13.978;2023-08-06T14:38:12;18.20;99.90
19031;DHT22;9648;51.130;13.978;2023-08-06T14:40:40;18.20;99.90
19031;DHT22;9648;51.130;13.978;2023-08-06T14:43:07;18.30;99.90
19031;DHT22;9648;51.130;13.978;2023-08-06T14:45:37;18.20;99.90
19031;DHT22;9648;51.130;13.978;2023-08-06T14:48:04;18.30;99.90
19031;DHT22;9648;51.130;13.978;2023-08-06T14:50:31;18.20;99.90
19031;DHT22;9648;51.130;13.978;2023-08-06T14:52:58;18.20;99.90
19031;DHT22;9648;51.130;13.978;2023-08-06T14:55:26;18.20;99.90
19031;DHT22;9648;51.130;13.978;2023-08-06T14:57:54;18.00;99.90
19031;DHT22;9648;51.130;13.978;2023-08-06T15:00:21;18.00;99.90
19031;DHT22;9648;51.130;13.978;2023-08-06T15:02:48;18.00;99.90
19031;DHT22;9648;51.130;13.978;2023-08-06T15:05:15;17.90;99.90
19031;DHT22;9648;51.130;13.978;2023-08-06T15:07:42;17.80;99.90
19031;DHT22;9648;51.130;13.978;2023-08-06T15:10:09;17.80;99.90
19031;DHT22;9648;51.130;13.978;2023-08-06T15:12:36;17.70;99.90
19031;DHT22;9648;51.130;13.978;2023-08-06T15:15:07;17.70;99.90
19031;DHT22;9648;51.130;13.978;2023-08-06T15:17:34;17.60;99.90
19031;DHT22;9648;51.130;13.978;2023-08-06T15:20:01;17.60;99.90
19031;DHT22;9648;51.130;13.978;2023-08-06T15:22:28;17.60;99.90
19031;DHT22;9648;51.130;13.978;2023-08-06T15:24:57;17.70;99.90
19031;DHT22;9648;51.130;13.978;2023-08-06T15:27:24;17.70;99.90
19031;DHT22;9648;51.130;13.978;2023-08-06T15:29:51;17.70;99.90
19031;DHT22;9648;51.130;13.978;2023-08-06T15:32:19;17.70;99.90